createdAt,value
2018-08-14T00:00:46.477Z,33.70
2018-08-14T00:03:19.212Z,33.70
2018-08-14T00:05:51.372Z,33.70
2018-08-14T00:08:22.622Z,33.70
2018-08-14T00:10:53.973Z,33.70
2018-08-14T00:13:26.457Z,33.70
2018-08-14T00:15:57.657Z,33.70
2018-08-14T00:18:28.733Z,33.70
2018-08-14T00:21:00.249Z,33.60
2018-08-14T00:23:31.374Z,33.60
2018-08-14T00:26:03.099Z,33.60
2018-08-14T00:28:34.376Z,33.60
2018-08-14T00:31:05.889Z,33.60
2018-08-14T00:33:37.198Z,33.50
2018-08-14T00:36:08.965Z,33.50
2018-08-14T00:38:40.097Z,33.50
2018-08-14T00:41:11.489Z,33.50
2018-08-14T00:43:42.711Z,33.50
2018-08-14T00:46:14.219Z,33.50
2018-08-14T00:48:45.494Z,33.40
2018-08-14T00:51:17.177Z,33.40
2018-08-14T00:53:48.363Z,33.40
2018-08-14T00:56:19.792Z,33.40
2018-08-14T00:58:50.962Z,33.30
2018-08-14T01:01:22.150Z,33.30
2018-08-14T01:03:53.257Z,33.40
2018-08-14T01:06:24.785Z,33.30
2018-08-14T01:08:56.110Z,33.30
2018-08-14T01:11:27.662Z,33.30
2018-08-14T01:14:00.327Z,33.30
2018-08-14T01:16:31.841Z,33.30
2018-08-14T01:19:02.945Z,33.30
2018-08-14T01:21:34.113Z,33.20
2018-08-14T01:24:05.590Z,33.20
2018-08-14T01:26:37.052Z,33.20
2018-08-14T01:29:08.897Z,33.20
2018-08-14T01:31:40.532Z,33.10
2018-08-14T01:34:12.358Z,33.10
2018-08-14T01:36:43.647Z,33.10
2018-08-14T01:39:15.094Z,33.10
2018-08-14T01:41:46.496Z,33.10
2018-08-14T01:44:17.727Z,33.10
2018-08-14T01:46:48.829Z,33.10
2018-08-14T01:49:19.950Z,33.10
2018-08-14T01:51:51.690Z,33.10
2018-08-14T01:54:22.831Z,33.00
2018-08-14T01:56:54.111Z,33.00
2018-08-14T01:59:25.216Z,33.00
2018-08-14T02:01:56.601Z,33.00
2018-08-14T02:04:28.007Z,33.00
2018-08-14T02:06:59.348Z,33.00
2018-08-14T02:09:30.348Z,33.00
2018-08-14T02:12:01.786Z,33.00
2018-08-14T02:14:33.829Z,33.00
2018-08-14T02:17:05.517Z,33.10
2018-08-14T02:19:36.634Z,33.10
2018-08-14T02:22:08.499Z,33.10
2018-08-14T02:24:39.657Z,33.10
2018-08-14T02:27:11.085Z,33.10
2018-08-14T02:29:42.156Z,33.10
2018-08-14T02:32:13.792Z,33.20
2018-08-14T02:34:44.887Z,33.20
2018-08-14T02:37:16.766Z,33.30
2018-08-14T02:39:48.041Z,33.30
2018-08-14T02:42:19.739Z,33.30
2018-08-14T02:44:50.871Z,33.40
2018-08-14T02:47:23.970Z,33.50
2018-08-14T02:49:55.005Z,33.50
2018-08-14T02:52:26.421Z,33.50
2018-08-14T02:54:57.478Z,33.60
2018-08-14T02:57:28.752Z,33.60
2018-08-14T03:00:00.043Z,33.70
2018-08-14T03:02:31.355Z,33.70
2018-08-14T03:05:02.361Z,33.70
2018-08-14T03:07:33.694Z,33.80
2018-08-14T03:10:05.041Z,33.80
2018-08-14T03:12:36.576Z,33.80
2018-08-14T03:15:09.702Z,33.90
2018-08-14T03:17:41.058Z,34.00
2018-08-14T03:20:12.496Z,34.10
2018-08-14T03:22:43.802Z,34.20
2018-08-14T03:25:15.086Z,34.30
2018-08-14T03:27:46.609Z,34.30
2018-08-14T03:30:18.107Z,34.50
2018-08-14T03:32:49.973Z,34.50
2018-08-14T03:35:21.159Z,34.70
2018-08-14T03:37:52.665Z,34.70
2018-08-14T03:40:23.758Z,34.80
2018-08-14T03:42:55.145Z,34.80
2018-08-14T03:45:26.262Z,35.00
2018-08-14T03:47:57.333Z,35.00
2018-08-14T03:50:28.681Z,35.00
2018-08-14T03:53:00.081Z,35.20
2018-08-14T03:55:31.301Z,35.30
2018-08-14T03:58:02.630Z,35.40
2018-08-14T04:00:33.632Z,35.60
2018-08-14T04:03:04.900Z,35.60
2018-08-14T04:05:36.177Z,35.80
2018-08-14T04:08:07.802Z,35.90
2018-08-14T04:10:39.042Z,36.10
2018-08-14T04:13:10.261Z,36.30
2018-08-14T04:15:41.993Z,36.50
2018-08-14T04:18:13.414Z,36.60
2018-08-14T04:20:44.647Z,36.70
2018-08-14T04:23:16.162Z,36.90
2018-08-14T04:25:47.431Z,37.00
2018-08-14T04:28:18.702Z,37.40
2018-08-14T04:30:49.794Z,37.70
2018-08-14T04:33:21.087Z,37.90
2018-08-14T04:35:52.098Z,38.70
2018-08-14T04:38:23.435Z,39.50
2018-08-14T04:40:54.679Z,40.40
2018-08-14T04:43:26.270Z,40.90
2018-08-14T04:45:57.288Z,41.90
2018-08-14T04:48:28.601Z,42.10
2018-08-14T04:50:59.701Z,42.30
2018-08-14T04:53:31.146Z,42.00
2018-08-14T04:56:02.554Z,41.70
2018-08-14T04:58:34.015Z,41.70
2018-08-14T05:01:05.327Z,41.70
2018-08-14T05:03:36.467Z,42.20
2018-08-14T05:06:07.702Z,42.40
2018-08-14T05:08:39.109Z,42.90
2018-08-14T05:11:10.290Z,43.60
2018-08-14T05:13:42.973Z,43.30
2018-08-14T05:16:15.805Z,43.10
2018-08-14T05:18:47.236Z,43.30
2018-08-14T05:21:18.509Z,42.70
2018-08-14T05:23:49.977Z,42.30
2018-08-14T05:26:21.247Z,41.90
2018-08-14T05:28:52.600Z,42.00
2018-08-14T05:31:23.907Z,42.20
2018-08-14T05:33:55.308Z,42.00
2018-08-14T05:36:26.534Z,41.90
2018-08-14T05:38:57.937Z,42.80
2018-08-14T05:41:29.027Z,43.30
2018-08-14T05:44:00.740Z,43.80
2018-08-14T05:46:31.926Z,44.70
2018-08-14T05:49:03.251Z,45.50
2018-08-14T05:51:34.606Z,46.00
2018-08-14T05:54:06.097Z,45.60
2018-08-14T05:56:37.473Z,45.50
2018-08-14T05:59:09.198Z,45.10
2018-08-14T06:01:40.817Z,44.90
2018-08-14T06:04:13.064Z,44.10
2018-08-14T06:06:44.410Z,43.90
2018-08-14T06:09:15.637Z,44.00
2018-08-14T06:11:46.681Z,43.80
2018-08-14T06:14:18.212Z,43.30
2018-08-14T06:16:50.259Z,43.50
2018-08-14T06:19:21.894Z,43.50
2018-08-14T06:21:53.129Z,42.70
2018-08-14T06:24:24.942Z,43.10
2018-08-14T06:26:56.359Z,43.60
2018-08-14T06:29:27.649Z,43.80
2018-08-14T06:31:59.132Z,44.20
2018-08-14T06:34:30.470Z,45.10
2018-08-14T06:37:01.762Z,46.00
2018-08-14T06:39:33.323Z,46.20
2018-08-14T06:42:04.650Z,47.10
2018-08-14T06:44:35.997Z,47.60
2018-08-14T06:47:07.234Z,46.80
2018-08-14T06:49:38.526Z,45.60
2018-08-14T06:52:09.878Z,44.90
2018-08-14T06:54:41.183Z,44.10
2018-08-14T06:57:12.381Z,43.60
2018-08-14T06:59:43.650Z,43.20
2018-08-14T07:02:15.170Z,43.20
2018-08-14T07:04:46.876Z,43.00
2018-08-14T07:07:17.909Z,42.80
2018-08-14T07:09:49.182Z,42.40
2018-08-14T07:12:20.223Z,43.10
2018-08-14T07:14:51.746Z,42.80
2018-08-14T07:17:23.697Z,42.60
2018-08-14T07:19:55.243Z,42.50
2018-08-14T07:22:26.371Z,42.60
2018-08-14T07:24:58.224Z,42.90
2018-08-14T07:27:29.177Z,43.20
2018-08-14T07:30:00.793Z,42.70
2018-08-14T07:32:31.918Z,42.90
2018-08-14T07:35:03.555Z,43.00
2018-08-14T07:37:34.782Z,43.00
2018-08-14T07:40:06.997Z,44.00
2018-08-14T07:42:38.148Z,44.70
2018-08-14T07:45:11.423Z,45.10
2018-08-14T07:47:42.979Z,45.80
2018-08-14T07:50:15.191Z,46.40
2018-08-14T07:52:46.656Z,46.20
2018-08-14T07:55:18.284Z,46.00
2018-08-14T07:57:50.704Z,45.40
2018-08-14T08:00:23.142Z,44.80
2018-08-14T08:02:54.418Z,43.90
2018-08-14T08:05:26.034Z,43.70
2018-08-14T08:07:57.237Z,43.30
2018-08-14T08:10:28.633Z,43.00
2018-08-14T08:12:59.756Z,42.70
2018-08-14T08:15:31.338Z,42.50
2018-08-14T08:18:02.967Z,42.00
2018-08-14T08:20:35.746Z,41.90
2018-08-14T08:23:08.410Z,41.80
2018-08-14T08:25:40.091Z,41.60
2018-08-14T08:28:11.231Z,41.50
2018-08-14T08:30:42.637Z,41.40
2018-08-14T08:33:13.807Z,41.50
2018-08-14T08:35:45.114Z,41.50
2018-08-14T08:38:16.236Z,41.60
2018-08-14T08:40:47.867Z,41.60
2018-08-14T08:43:19.034Z,41.50
2018-08-14T08:45:50.361Z,41.50
2018-08-14T08:48:23.015Z,41.40
2018-08-14T08:50:54.469Z,41.30
2018-08-14T08:53:25.711Z,41.50
2018-08-14T08:55:56.942Z,41.30
2018-08-14T08:58:28.381Z,41.40
2018-08-14T09:00:59.778Z,41.40
2018-08-14T09:03:30.978Z,41.50
2018-08-14T09:06:02.333Z,41.40
2018-08-14T09:08:33.552Z,41.60
2018-08-14T09:11:05.000Z,41.80
2018-08-14T09:13:36.419Z,41.50
2018-08-14T09:16:08.011Z,41.50
2018-08-14T09:18:40.074Z,41.40
2018-08-14T09:21:11.662Z,41.40
2018-08-14T09:23:42.902Z,41.40
2018-08-14T09:26:14.365Z,41.20
2018-08-14T09:28:45.437Z,41.20
2018-08-14T09:31:16.844Z,41.20
2018-08-14T09:33:48.049Z,41.30
2018-08-14T09:36:19.785Z,41.30
2018-08-14T09:38:51.335Z,41.20
2018-08-14T09:41:22.867Z,41.10
2018-08-14T09:43:53.968Z,41.30
2018-08-14T09:46:25.720Z,41.20
2018-08-14T09:48:56.901Z,41.30
2018-08-14T09:51:28.490Z,41.20
2018-08-14T09:53:59.802Z,41.00
2018-08-14T09:56:31.486Z,40.90
2018-08-14T09:59:02.580Z,40.70
2018-08-14T10:01:38.676Z,40.80
2018-08-14T10:04:15.301Z,40.90
2018-08-14T10:06:51.282Z,40.80
2018-08-14T10:09:22.979Z,40.60
2018-08-14T10:11:54.659Z,40.70
2018-08-14T10:14:30.410Z,40.80
2018-08-14T10:17:01.925Z,40.80
2018-08-14T10:19:34.549Z,40.60
2018-08-14T10:22:05.978Z,40.70
2018-08-14T10:24:37.062Z,40.70
2018-08-14T10:27:09.508Z,40.70
2018-08-14T10:29:40.787Z,40.60
2018-08-14T10:32:12.053Z,40.60
2018-08-14T10:34:43.294Z,40.50
2018-08-14T10:37:14.782Z,40.40
2018-08-14T10:39:46.642Z,40.50
2018-08-14T10:42:18.482Z,40.30
2018-08-14T10:44:49.889Z,40.10
2018-08-14T10:47:21.343Z,40.20
2018-08-14T10:49:52.530Z,40.10
2018-08-14T10:52:23.958Z,40.30
2018-08-14T10:54:55.141Z,40.20
2018-08-14T10:57:26.704Z,40.30
2018-08-14T10:59:57.916Z,40.30
2018-08-14T11:02:29.884Z,40.30
2018-08-14T11:05:01.242Z,40.20
2018-08-14T11:07:32.742Z,40.00
2018-08-14T11:10:03.927Z,40.00
2018-08-14T11:12:37.662Z,39.90
2018-08-14T11:15:09.641Z,39.90
2018-08-14T11:17:41.111Z,39.90
2018-08-14T11:20:20.113Z,39.80
2018-08-14T11:22:52.256Z,39.70
2018-08-14T11:25:23.598Z,39.70
2018-08-14T11:27:55.189Z,39.80
2018-08-14T11:30:28.022Z,39.80
2018-08-14T11:32:58.997Z,39.70
2018-08-14T11:35:35.709Z,39.60
2018-08-14T11:38:07.142Z,39.60
2018-08-14T11:40:38.346Z,39.60
2018-08-14T11:43:09.527Z,39.60
2018-08-14T11:45:40.978Z,39.50
2018-08-14T11:48:12.502Z,39.50
2018-08-14T11:50:43.695Z,39.50
2018-08-14T11:53:15.381Z,39.40
2018-08-14T11:55:46.425Z,39.30
2018-08-14T11:58:17.932Z,39.40
2018-08-14T12:00:48.870Z,39.40
2018-08-14T12:03:20.221Z,39.40
2018-08-14T12:05:53.870Z,39.30
2018-08-14T12:08:25.156Z,39.30
2018-08-14T12:10:57.654Z,39.20
2018-08-14T12:13:29.163Z,39.10
2018-08-14T12:16:00.663Z,39.10
2018-08-14T12:18:31.979Z,38.90
2018-08-14T12:21:04.654Z,38.80
2018-08-14T12:23:35.981Z,38.80
2018-08-14T12:26:07.058Z,38.90
2018-08-14T12:28:38.646Z,38.80
2018-08-14T12:31:09.811Z,38.80
2018-08-14T12:33:41.367Z,38.80
2018-08-14T12:36:12.731Z,38.80
2018-08-14T12:38:44.237Z,38.80
2018-08-14T12:41:15.448Z,38.80
2018-08-14T12:43:46.650Z,38.70
2018-08-14T12:46:17.851Z,38.60
2018-08-14T12:48:49.377Z,38.60
2018-08-14T12:51:20.582Z,38.60
2018-08-14T12:53:51.715Z,38.50
2018-08-14T12:56:22.995Z,38.50
2018-08-14T12:58:54.415Z,38.50
2018-08-14T13:01:25.903Z,38.40
2018-08-14T13:03:57.229Z,38.40
2018-08-14T13:06:28.481Z,38.30
2018-08-14T13:08:59.796Z,38.30
2018-08-14T13:11:30.946Z,38.30
2018-08-14T13:14:02.358Z,38.30
2018-08-14T13:16:33.635Z,38.30
2018-08-14T13:19:04.879Z,38.10
2018-08-14T13:21:36.921Z,38.30
2018-08-14T13:24:08.590Z,38.10
2018-08-14T13:26:39.737Z,38.10
2018-08-14T13:29:10.945Z,38.10
2018-08-14T13:31:42.439Z,38.00
2018-08-14T13:34:14.574Z,37.90
2018-08-14T13:36:45.870Z,38.00
2018-08-14T13:39:17.313Z,38.00
2018-08-14T13:41:48.362Z,37.90
2018-08-14T13:44:19.904Z,37.90
2018-08-14T13:46:50.973Z,37.80
2018-08-14T13:49:22.362Z,37.80
2018-08-14T13:51:53.556Z,37.80
2018-08-14T13:54:25.123Z,37.90
2018-08-14T13:56:57.204Z,37.80
2018-08-14T13:59:28.914Z,37.70
2018-08-14T14:01:59.958Z,37.60
2018-08-14T14:04:31.395Z,37.60
2018-08-14T14:07:02.557Z,37.60
2018-08-14T14:09:34.099Z,37.50
2018-08-14T14:12:05.349Z,37.50
2018-08-14T14:14:36.798Z,37.40
2018-08-14T14:17:07.837Z,37.30
2018-08-14T14:19:39.141Z,37.20
2018-08-14T14:22:11.418Z,37.20
2018-08-14T14:24:42.690Z,37.20
2018-08-14T14:27:14.031Z,37.20
2018-08-14T14:29:45.522Z,37.10
2018-08-14T14:32:16.690Z,37.10
2018-08-14T14:34:48.208Z,37.00
2018-08-14T14:37:19.438Z,37.00
2018-08-14T14:39:50.934Z,37.00
2018-08-14T14:42:22.079Z,37.10
2018-08-14T14:44:53.804Z,37.00
2018-08-14T14:47:25.270Z,36.90
2018-08-14T14:49:56.860Z,36.90
2018-08-14T14:52:28.160Z,36.90
2018-08-14T14:55:00.160Z,36.90
2018-08-14T14:57:31.702Z,36.80
2018-08-14T15:00:03.947Z,36.80
2018-08-14T15:02:35.229Z,36.70
2018-08-14T15:05:07.674Z,36.70
2018-08-14T15:07:39.130Z,36.70
2018-08-14T15:10:11.579Z,36.70
2018-08-14T15:12:43.674Z,36.70
2018-08-14T15:15:15.793Z,36.60
2018-08-14T15:17:47.748Z,36.60
2018-08-14T15:20:21.698Z,36.60
2018-08-14T15:22:55.193Z,36.60
2018-08-14T15:25:27.218Z,36.50
2018-08-14T15:29:07.458Z,36.60
2018-08-14T15:31:41.490Z,36.60
2018-08-14T15:34:15.261Z,36.50
2018-08-14T15:36:49.518Z,36.50
2018-08-14T15:39:21.833Z,36.50
2018-08-14T15:41:54.541Z,36.50
2018-08-14T15:44:26.266Z,36.50
2018-08-14T15:46:58.080Z,36.50
2018-08-14T15:49:29.656Z,36.50
2018-08-14T15:52:01.650Z,36.50
2018-08-14T15:54:33.291Z,36.50
2018-08-14T15:57:04.962Z,36.50
2018-08-14T15:59:36.182Z,36.50
2018-08-14T16:02:07.788Z,36.50
2018-08-14T16:04:39.257Z,36.50
2018-08-14T16:07:10.474Z,36.50
2018-08-14T16:09:41.875Z,36.40
2018-08-14T16:12:13.734Z,36.40
2018-08-14T16:14:45.274Z,36.40
2018-08-14T16:17:16.938Z,36.30
2018-08-14T16:19:48.306Z,36.40
2018-08-14T16:22:20.290Z,36.30
2018-08-14T16:24:52.851Z,36.30
2018-08-14T16:27:24.610Z,36.30
2018-08-14T16:29:56.740Z,36.30
2018-08-14T16:32:28.718Z,36.30
2018-08-14T16:35:00.005Z,36.30
2018-08-14T16:37:31.570Z,36.20
2018-08-14T16:40:02.909Z,36.20
2018-08-14T16:42:35.325Z,36.20
2018-08-14T16:45:06.672Z,36.20
2018-08-14T16:47:38.319Z,36.20
2018-08-14T16:50:10.072Z,36.20
2018-08-14T16:52:41.789Z,36.20
2018-08-14T16:55:13.171Z,36.20
2018-08-14T16:57:45.151Z,36.20
2018-08-14T17:00:21.186Z,36.20
2018-08-14T17:02:52.460Z,36.20
2018-08-14T17:05:23.999Z,36.20
2018-08-14T17:07:55.485Z,36.20
2018-08-14T17:10:27.750Z,36.20
2018-08-14T17:12:59.464Z,36.20
2018-08-14T17:15:30.900Z,36.30
2018-08-14T17:18:02.582Z,36.20
2018-08-14T17:20:31.230Z,36.20
2018-08-14T17:23:02.278Z,36.20
2018-08-14T17:25:34.674Z,36.20
2018-08-14T17:28:05.800Z,36.20
2018-08-14T17:30:37.097Z,36.20
2018-08-14T17:33:08.479Z,36.20
2018-08-14T17:35:39.947Z,36.20
2018-08-14T17:38:11.097Z,36.20
2018-08-14T17:40:42.882Z,36.20
2018-08-14T17:43:14.247Z,36.20
2018-08-14T17:45:45.543Z,36.20
2018-08-14T17:48:16.722Z,36.20
2018-08-14T17:50:48.625Z,36.20
2018-08-14T17:53:19.876Z,36.20
2018-08-14T17:55:51.282Z,36.20
2018-08-14T17:58:22.446Z,36.20
2018-08-14T18:00:53.689Z,36.20
2018-08-14T18:03:24.810Z,36.20
2018-08-14T18:05:56.499Z,36.20
2018-08-14T18:08:27.414Z,36.20
2018-08-14T18:10:59.016Z,36.20
2018-08-14T18:13:30.146Z,36.20
2018-08-14T18:16:01.725Z,36.20
2018-08-14T18:18:32.973Z,36.20
2018-08-14T18:21:04.599Z,36.20
2018-08-14T18:23:35.773Z,36.20
2018-08-14T18:26:09.048Z,36.20
2018-08-14T18:28:40.298Z,36.20
2018-08-14T18:31:11.773Z,36.20
2018-08-14T18:33:43.812Z,36.20
2018-08-14T18:36:15.256Z,36.20
2018-08-14T18:38:46.551Z,36.20
2018-08-14T18:41:17.769Z,36.10
2018-08-14T18:43:48.737Z,36.10
2018-08-14T18:46:20.053Z,36.10
2018-08-14T18:48:51.421Z,36.10
2018-08-14T18:51:23.714Z,36.10
2018-08-14T18:53:54.890Z,36.10
2018-08-14T18:56:27.629Z,36.10
2018-08-14T18:58:58.807Z,36.10
2018-08-14T19:01:30.154Z,36.10
2018-08-14T19:04:01.784Z,36.10
2018-08-14T19:06:33.870Z,36.10
2018-08-14T19:09:05.379Z,36.00
2018-08-14T19:11:36.966Z,36.10
2018-08-14T19:14:08.227Z,36.10
2018-08-14T19:16:40.352Z,36.10
2018-08-14T19:19:11.719Z,36.10
2018-08-14T19:21:43.114Z,36.10
2018-08-14T19:24:14.509Z,36.10
2018-08-14T19:26:46.694Z,36.00
2018-08-14T19:29:17.952Z,36.00
2018-08-14T19:31:49.266Z,36.00
2018-08-14T19:34:20.682Z,36.00
2018-08-14T19:36:52.310Z,35.90
2018-08-14T19:39:23.545Z,36.00
2018-08-14T19:41:54.959Z,36.00
2018-08-14T19:44:26.050Z,36.00
2018-08-14T19:46:57.262Z,36.00
2018-08-14T19:49:28.474Z,36.00
2018-08-14T19:51:59.990Z,36.00
2018-08-14T19:54:31.166Z,35.90
2018-08-14T19:57:02.749Z,35.90
2018-08-14T19:59:33.949Z,35.90
2018-08-14T20:02:05.757Z,35.90
2018-08-14T20:04:36.921Z,35.90
2018-08-14T20:07:08.338Z,35.90
2018-08-14T20:09:39.320Z,35.80
2018-08-14T20:12:10.821Z,35.90
2018-08-14T20:14:41.942Z,35.70
2018-08-14T20:17:13.459Z,35.80
2018-08-14T20:19:44.624Z,35.70
2018-08-14T20:22:19.018Z,35.70
2018-08-14T20:24:50.102Z,35.70
2018-08-14T20:27:22.752Z,35.60
2018-08-14T20:29:54.054Z,35.60
2018-08-14T20:32:25.554Z,35.50
2018-08-14T20:34:56.856Z,35.50
2018-08-14T20:37:28.137Z,35.50
2018-08-14T20:39:59.465Z,35.50
2018-08-14T20:42:31.130Z,35.50
2018-08-14T20:45:02.459Z,35.50
2018-08-14T20:47:33.841Z,35.50
2018-08-14T20:50:05.668Z,35.50
2018-08-14T20:52:37.225Z,35.40
2018-08-14T20:55:09.402Z,35.40
2018-08-14T20:57:41.853Z,35.30
2018-08-14T21:00:18.004Z,35.30
2018-08-14T21:02:49.636Z,35.30
2018-08-14T21:05:21.466Z,35.30
2018-08-14T21:07:53.339Z,35.30
2018-08-14T21:10:24.448Z,35.20
2018-08-14T21:12:55.746Z,35.20
2018-08-14T21:15:31.616Z,35.20
2018-08-14T21:18:03.402Z,35.20
2018-08-14T21:20:34.953Z,35.20
2018-08-14T21:23:06.509Z,35.20
2018-08-14T21:25:37.587Z,35.20
2018-08-14T21:28:10.324Z,35.20
2018-08-14T21:30:41.409Z,35.20
2018-08-14T21:33:12.713Z,35.10
2018-08-14T21:35:43.996Z,35.20
2018-08-14T21:38:15.246Z,35.10
2018-08-14T21:40:46.365Z,35.10
2018-08-14T21:43:17.976Z,35.00
2018-08-14T21:45:49.355Z,35.00
2018-08-14T21:48:20.757Z,35.00
2018-08-14T21:50:52.069Z,35.00
2018-08-14T21:53:23.321Z,35.00
2018-08-14T21:55:54.610Z,35.00
2018-08-14T21:58:26.314Z,34.90
2018-08-14T22:01:04.773Z,34.90
2018-08-14T22:03:40.572Z,34.90
2018-08-14T22:06:12.850Z,34.90
2018-08-14T22:08:44.418Z,34.90
2018-08-14T22:11:15.432Z,34.90
2018-08-14T22:13:46.690Z,34.90
2018-08-14T22:16:17.842Z,35.00
2018-08-14T22:18:49.326Z,34.90
2018-08-14T22:21:20.614Z,34.90
2018-08-14T22:23:52.117Z,34.90
2018-08-14T22:26:23.159Z,34.80
2018-08-14T22:28:55.336Z,34.80
2018-08-14T22:31:26.658Z,34.80
2018-08-14T22:33:58.065Z,34.80
2018-08-14T22:36:29.417Z,34.80
2018-08-14T22:39:01.021Z,34.80
2018-08-14T22:41:32.083Z,34.80
2018-08-14T22:44:03.493Z,34.70
2018-08-14T22:46:34.677Z,34.70
2018-08-14T22:49:06.694Z,34.70
2018-08-14T22:51:37.867Z,34.60
2018-08-14T22:54:09.386Z,34.60
2018-08-14T22:56:40.378Z,34.60
2018-08-14T22:59:11.982Z,34.60
2018-08-14T23:01:43.113Z,34.60
2018-08-14T23:04:14.465Z,34.60
2018-08-14T23:06:45.725Z,34.60
2018-08-14T23:09:17.875Z,34.60
2018-08-14T23:11:48.990Z,34.60
2018-08-14T23:14:20.414Z,34.60
2018-08-14T23:16:51.502Z,34.60
2018-08-14T23:19:22.942Z,34.50
2018-08-14T23:21:54.066Z,34.50
2018-08-14T23:24:25.309Z,34.50
2018-08-14T23:26:56.260Z,34.50
2018-08-14T23:29:28.765Z,34.50
2018-08-14T23:31:59.981Z,34.50
2018-08-14T23:34:31.942Z,34.50
2018-08-14T23:37:03.134Z,34.50
2018-08-14T23:39:34.602Z,34.50
2018-08-14T23:42:05.778Z,34.50
2018-08-14T23:44:37.154Z,34.40
2018-08-14T23:47:08.443Z,34.50
2018-08-14T23:49:40.047Z,34.40
2018-08-14T23:52:11.090Z,34.40
2018-08-14T23:54:42.269Z,34.40
2018-08-14T23:57:13.486Z,34.40
2018-08-14T23:59:44.801Z,34.40
